Aviation Digital Data Service (ADDS)

Output produced by METARs form (1716 UTC 24 May 2015)
found at http://aviationweather.gov/adds/metars/
 
KSAN 241548Z 2416/2518 27006KT P6SM SCT030 BKN045 
     FM242000 26010KT P6SM BKN050 
     FM250200 25006KT P6SM BKN030 
     FM251000 VRB03KT P6SM OVC025